createdAt,value
2022-10-09T00:03:59.798Z,11.34
2022-10-09T00:08:01.647Z,11.38
2022-10-09T00:12:03.736Z,11.47
2022-10-09T00:16:07.867Z,11.40
2022-10-09T00:20:10.449Z,11.35
2022-10-09T00:24:12.216Z,11.28
2022-10-09T00:28:14.111Z,11.36
2022-10-09T00:32:16.496Z,11.49
2022-10-09T00:36:22.195Z,11.50
2022-10-09T00:40:24.987Z,11.51
2022-10-09T00:44:51.556Z,11.52
2022-10-09T00:49:01.426Z,11.48
2022-10-09T00:53:03.635Z,11.48
2022-10-09T00:57:05.634Z,11.44
2022-10-09T01:01:07.520Z,11.35
2022-10-09T01:05:10.863Z,11.22
2022-10-09T01:09:22.821Z,11.08
2022-10-09T01:13:36.099Z,11.03
2022-10-09T01:17:44.780Z,10.92
2022-10-09T01:21:55.835Z,10.84
2022-10-09T01:26:26.840Z,10.95
2022-10-09T01:30:29.538Z,10.95
2022-10-09T01:34:33.047Z,11.01
2022-10-09T01:38:35.126Z,10.97
2022-10-09T01:42:37.040Z,10.96
2022-10-09T01:46:39.112Z,10.86
2022-10-09T01:50:45.646Z,10.77
2022-10-09T01:55:18.949Z,10.62
2022-10-09T01:59:21.285Z,10.79
2022-10-09T02:03:25.829Z,10.73
2022-10-09T02:07:29.656Z,10.74
2022-10-09T02:11:33.342Z,10.81
2022-10-09T02:15:47.580Z,10.84
2022-10-09T02:19:59.473Z,10.75
2022-10-09T02:24:02.202Z,10.71
2022-10-09T02:28:04.699Z,10.65
2022-10-09T02:32:06.725Z,10.48
2022-10-09T02:36:08.763Z,10.37
2022-10-09T02:40:11.120Z,10.30
2022-10-09T02:44:12.855Z,10.09
2022-10-09T02:48:14.741Z,10.08
2022-10-09T02:52:16.401Z,9.99
2022-10-09T02:56:18.224Z,9.83
2022-10-09T03:00:20.150Z,9.76
2022-10-09T03:04:22.040Z,9.70
2022-10-09T03:08:23.880Z,9.73
2022-10-09T03:12:25.889Z,9.61
2022-10-09T03:16:28.442Z,9.56
2022-10-09T03:20:55.721Z,9.46
2022-10-09T03:24:57.489Z,9.49
2022-10-09T03:28:59.351Z,9.46
2022-10-09T03:33:01.240Z,9.34
2022-10-09T03:37:02.928Z,9.27
2022-10-09T03:41:05.731Z,9.23
2022-10-09T03:45:08.014Z,9.27
2022-10-09T03:49:09.954Z,9.31
2022-10-09T03:53:13.085Z,9.34
2022-10-09T03:57:15.446Z,9.25
2022-10-09T04:01:17.126Z,9.32
2022-10-09T04:05:19.174Z,9.34
2022-10-09T04:09:20.803Z,9.33
2022-10-09T04:13:22.765Z,9.44
2022-10-09T04:17:24.423Z,9.46
2022-10-09T04:21:26.495Z,9.31
2022-10-09T04:25:29.373Z,9.33
2022-10-09T04:29:31.601Z,9.42
2022-10-09T04:33:33.343Z,9.47
2022-10-09T04:37:36.721Z,9.38
2022-10-09T04:41:38.911Z,9.29
2022-10-09T04:45:41.175Z,9.34
2022-10-09T04:49:42.832Z,9.28
2022-10-09T04:53:45.500Z,9.33
2022-10-09T04:57:47.201Z,9.36
2022-10-09T05:01:49.088Z,9.26
2022-10-09T05:05:50.892Z,9.28
2022-10-09T05:09:52.748Z,9.32
2022-10-09T05:13:56.100Z,9.23
2022-10-09T05:17:58.064Z,9.18
2022-10-09T05:22:01.007Z,9.24
2022-10-09T05:26:06.398Z,9.22
2022-10-09T05:30:09.287Z,9.12
2022-10-09T05:34:11.488Z,9.06
2022-10-09T05:38:13.124Z,9.23
2022-10-09T05:42:15.165Z,9.22
2022-10-09T05:46:23.721Z,9.21
2022-10-09T05:50:25.447Z,9.21
2022-10-09T05:54:27.581Z,9.26
2022-10-09T05:58:29.512Z,9.42
2022-10-09T06:02:31.204Z,9.41
2022-10-09T06:06:37.094Z,9.46
2022-10-09T06:10:38.740Z,9.45
2022-10-09T06:14:40.575Z,9.41
2022-10-09T06:18:48.701Z,9.53
2022-10-09T06:22:51.437Z,9.62
2022-10-09T06:26:53.308Z,9.64
2022-10-09T06:31:04.154Z,9.56
2022-10-09T06:35:06.862Z,9.69
2022-10-09T06:39:10.746Z,9.70
2022-10-09T06:43:12.462Z,9.76
2022-10-09T06:47:14.287Z,9.75
2022-10-09T06:51:19.267Z,9.79
2022-10-09T06:55:24.049Z,9.80
2022-10-09T06:59:28.121Z,9.89
2022-10-09T07:03:30.068Z,9.81
2022-10-09T07:07:32.009Z,9.85
2022-10-09T07:11:36.500Z,9.87
2022-10-09T07:15:45.043Z,9.91
2022-10-09T07:19:48.639Z,10.06
2022-10-09T07:23:50.674Z,10.17
2022-10-09T07:27:52.477Z,10.16
2022-10-09T07:31:54.338Z,10.19
2022-10-09T07:35:57.995Z,10.07
2022-10-09T07:39:59.645Z,10.19
2022-10-09T07:44:01.715Z,10.09
2022-10-09T07:48:04.063Z,10.19
2022-10-09T07:52:05.862Z,10.26
2022-10-09T07:56:13.156Z,10.14
2022-10-09T08:00:15.068Z,10.31
2022-10-09T08:04:16.672Z,10.36
2022-10-09T08:08:18.822Z,10.44
2022-10-09T08:12:20.502Z,10.45
2022-10-09T08:16:23.525Z,10.66
2022-10-09T08:20:25.213Z,10.80
2022-10-09T08:24:27.237Z,10.87
2022-10-09T08:28:29.004Z,10.97
2022-10-09T08:32:31.168Z,11.02
2022-10-09T08:36:32.969Z,10.86
2022-10-09T08:40:53.839Z,10.83
2022-10-09T08:44:59.260Z,10.83
2022-10-09T08:49:04.627Z,10.72
2022-10-09T08:53:36.888Z,10.72
2022-10-09T08:57:39.190Z,10.94
2022-10-09T09:02:02.555Z,10.93
2022-10-09T09:06:16.192Z,10.89
2022-10-09T09:10:46.087Z,10.93
2022-10-09T09:15:07.069Z,10.94
2022-10-09T09:19:46.318Z,11.11
2022-10-09T09:23:48.901Z,11.49
2022-10-09T09:27:53.976Z,11.55
2022-10-09T09:31:59.856Z,11.73
2022-10-09T09:36:10.839Z,11.67
2022-10-09T09:40:36.195Z,11.73
2022-10-09T09:44:44.958Z,11.67
2022-10-09T09:48:48.904Z,11.61
2022-10-09T09:52:50.914Z,11.72
2022-10-09T09:57:15.901Z,11.72
2022-10-09T10:01:27.304Z,11.71
2022-10-09T10:05:36.526Z,11.78
2022-10-09T10:09:38.169Z,11.65
2022-10-09T10:13:49.212Z,11.58
2022-10-09T10:17:58.302Z,11.84
2022-10-09T10:22:06.552Z,11.65
2022-10-09T10:26:36.656Z,11.49
2022-10-09T10:30:39.313Z,11.56
2022-10-09T10:35:04.818Z,11.47
2022-10-09T10:39:13.003Z,11.40
2022-10-09T10:43:22.473Z,11.42
2022-10-09T10:47:28.282Z,11.31
2022-10-09T10:51:38.958Z,11.53
2022-10-09T10:56:04.135Z,11.62
2022-10-09T11:00:10.966Z,11.62
2022-10-09T11:04:24.697Z,11.71
2022-10-09T11:08:37.127Z,11.46
2022-10-09T11:12:56.237Z,11.36
2022-10-09T11:17:06.728Z,11.52
2022-10-09T11:21:12.948Z,11.66
2022-10-09T11:25:34.068Z,11.96
2022-10-09T11:29:47.255Z,11.56
2022-10-09T11:33:52.282Z,11.62
2022-10-09T11:38:01.225Z,11.59
2022-10-09T11:42:03.424Z,11.81
2022-10-09T11:46:18.670Z,11.72
2022-10-09T11:50:39.765Z,11.89
2022-10-09T11:54:41.971Z,11.90
2022-10-09T11:58:43.634Z,11.88
2022-10-09T12:02:58.857Z,11.85
2022-10-09T12:07:03.822Z,11.89
2022-10-09T12:11:16.620Z,12.07
2022-10-09T12:15:37.980Z,12.03
2022-10-09T12:19:41.022Z,12.00
2022-10-09T12:23:42.839Z,12.10
2022-10-09T12:27:45.339Z,11.94
2022-10-09T12:31:51.430Z,11.97
2022-10-09T12:36:05.276Z,11.84
2022-10-09T12:40:20.948Z,11.68
2022-10-09T12:44:35.766Z,11.89
2022-10-09T12:48:41.210Z,12.10
2022-10-09T12:52:55.148Z,12.15
2022-10-09T12:56:59.247Z,12.14
2022-10-09T13:01:04.880Z,12.06
2022-10-09T13:05:07.036Z,12.47
2022-10-09T13:09:19.995Z,12.43
2022-10-09T13:13:26.577Z,12.66
2022-10-09T13:17:38.603Z,12.73
2022-10-09T13:21:40.433Z,13.02
2022-10-09T13:25:44.182Z,13.28
2022-10-09T13:29:47.654Z,13.60
2022-10-09T13:33:49.934Z,13.56
2022-10-09T13:37:52.203Z,13.13
2022-10-09T13:41:55.903Z,13.08
2022-10-09T13:45:58.146Z,12.90
2022-10-09T13:50:00.043Z,13.19
2022-10-09T13:54:01.895Z,13.44
2022-10-09T13:58:04.500Z,13.63
2022-10-09T14:02:06.639Z,13.50
2022-10-09T14:06:08.742Z,13.61
2022-10-09T14:10:10.728Z,13.70
2022-10-09T14:14:12.907Z,13.71
2022-10-09T14:18:14.825Z,13.49
2022-10-09T14:22:16.953Z,13.47
2022-10-09T14:26:18.707Z,13.50
2022-10-09T14:30:20.579Z,13.28
2022-10-09T14:34:22.435Z,13.03
2022-10-09T14:38:24.236Z,12.97
2022-10-09T14:42:25.935Z,12.91
2022-10-09T14:46:29.488Z,12.88
2022-10-09T14:50:31.228Z,12.71
2022-10-09T14:54:33.076Z,12.50
2022-10-09T14:58:36.430Z,12.31
2022-10-09T15:02:38.692Z,12.41
2022-10-09T15:06:40.521Z,12.12
2022-10-09T15:10:43.489Z,12.06
2022-10-09T15:14:45.113Z,11.83
2022-10-09T15:18:50.084Z,11.68
2022-10-09T15:22:51.893Z,11.59
2022-10-09T15:26:53.686Z,11.39
2022-10-09T15:31:00.053Z,11.32
2022-10-09T15:35:02.004Z,11.11
2022-10-09T15:39:07.243Z,10.92
2022-10-09T15:43:09.151Z,10.69
2022-10-09T15:47:16.401Z,10.53
2022-10-09T15:51:19.661Z,10.42
2022-10-09T15:55:21.362Z,10.26
2022-10-09T15:59:23.312Z,10.23
2022-10-09T16:03:24.899Z,9.95
2022-10-09T16:07:26.809Z,9.68
2022-10-09T16:11:28.582Z,9.66
2022-10-09T16:15:30.689Z,9.48
2022-10-09T16:19:32.339Z,9.32
2022-10-09T16:23:35.031Z,9.19
2022-10-09T16:27:36.799Z,8.93
2022-10-09T16:31:38.888Z,8.86
2022-10-09T16:35:40.766Z,8.74
2022-10-09T16:39:42.627Z,8.56
2022-10-09T16:43:46.417Z,8.32
2022-10-09T16:47:48.742Z,8.07
2022-10-09T16:51:50.816Z,7.96
2022-10-09T16:55:52.674Z,7.84
2022-10-09T16:59:54.378Z,7.82
2022-10-09T17:03:58.126Z,7.64
2022-10-09T17:08:00.134Z,7.63
2022-10-09T17:12:02.182Z,7.54
2022-10-09T17:16:08.956Z,7.45
2022-10-09T17:20:10.964Z,7.40
2022-10-09T17:24:15.991Z,7.24
2022-10-09T17:28:17.922Z,7.12
2022-10-09T17:32:19.647Z,7.09
2022-10-09T17:36:23.782Z,6.98
2022-10-09T17:40:25.570Z,6.89
2022-10-09T17:44:30.130Z,6.82
2022-10-09T17:48:35.761Z,6.70
2022-10-09T17:52:37.730Z,6.59
2022-10-09T17:56:40.221Z,6.40
2022-10-09T18:00:42.617Z,6.47
2022-10-09T18:04:44.348Z,6.38
2022-10-09T18:08:46.498Z,6.24
2022-10-09T18:12:48.390Z,6.22
2022-10-09T18:16:50.429Z,6.09
2022-10-09T18:20:52.065Z,5.98
2022-10-09T18:24:54.166Z,5.89
2022-10-09T18:28:55.869Z,5.79
2022-10-09T18:32:57.787Z,5.72
2022-10-09T18:36:59.709Z,5.75
2022-10-09T18:41:02.376Z,5.68
2022-10-09T18:45:04.516Z,5.57
2022-10-09T18:49:09.909Z,5.52
2022-10-09T18:53:12.086Z,5.45
2022-10-09T18:57:14.071Z,5.42
2022-10-09T19:01:16.136Z,5.33
2022-10-09T19:05:18.346Z,5.33
2022-10-09T19:09:20.741Z,5.14
2022-10-09T19:13:22.902Z,5.10
2022-10-09T19:17:24.663Z,5.03
2022-10-09T19:21:26.551Z,5.10
2022-10-09T19:25:28.381Z,4.89
2022-10-09T19:29:30.603Z,4.91
2022-10-09T19:33:32.652Z,4.95
2022-10-09T19:37:34.694Z,4.83
2022-10-09T19:41:36.521Z,4.83
2022-10-09T19:45:38.750Z,4.64
2022-10-09T19:49:41.218Z,4.60
2022-10-09T19:53:43.692Z,4.57
2022-10-09T19:57:45.400Z,4.53
2022-10-09T20:01:47.492Z,4.60
2022-10-09T20:05:49.129Z,4.51
2022-10-09T20:09:51.000Z,4.43
2022-10-09T20:13:56.006Z,4.31
2022-10-09T20:17:58.379Z,4.21
2022-10-09T20:22:00.015Z,4.14
2022-10-09T20:26:09.578Z,4.19
2022-10-09T20:30:12.105Z,4.03
2022-10-09T20:34:13.979Z,3.92
2022-10-09T20:38:15.974Z,4.03
2022-10-09T20:42:17.815Z,3.98
2022-10-09T20:46:21.347Z,3.93
2022-10-09T20:50:23.372Z,3.90
2022-10-09T20:54:25.270Z,3.89
2022-10-09T20:58:27.432Z,3.92
2022-10-09T21:02:29.269Z,3.94
2022-10-09T21:06:31.232Z,3.88
2022-10-09T21:10:32.912Z,3.73
2022-10-09T21:14:36.112Z,3.76
2022-10-09T21:18:38.959Z,3.69
2022-10-09T21:22:42.031Z,3.64
2022-10-09T21:26:47.423Z,3.62
2022-10-09T21:30:50.048Z,3.57
2022-10-09T21:34:51.761Z,3.61
2022-10-09T21:38:53.672Z,3.66
2022-10-09T21:42:55.253Z,3.53
2022-10-09T21:46:57.297Z,3.52
2022-10-09T21:50:59.015Z,3.45
2022-10-09T21:55:00.880Z,3.41
2022-10-09T21:59:02.597Z,3.45
2022-10-09T22:03:04.679Z,3.40
2022-10-09T22:07:06.349Z,3.36
2022-10-09T22:11:10.005Z,3.39
2022-10-09T22:15:11.806Z,3.31
2022-10-09T22:19:14.284Z,3.26
2022-10-09T22:23:18.235Z,3.31
2022-10-09T22:27:20.178Z,3.29
2022-10-09T22:31:24.279Z,3.37
2022-10-09T22:35:26.934Z,3.42
2022-10-09T22:39:29.343Z,3.30
2022-10-09T22:43:31.626Z,3.24
2022-10-09T22:47:33.451Z,3.27
2022-10-09T22:51:35.513Z,3.15
2022-10-09T22:55:41.220Z,3.13
2022-10-09T22:59:43.130Z,3.29
2022-10-09T23:03:45.333Z,3.39
2022-10-09T23:07:47.223Z,3.35
2022-10-09T23:11:48.914Z,3.40
2022-10-09T23:15:51.202Z,3.42
2022-10-09T23:19:52.848Z,3.38
2022-10-09T23:23:55.580Z,3.37
2022-10-09T23:27:57.261Z,3.45
2022-10-09T23:31:59.121Z,3.45
2022-10-09T23:36:04.556Z,3.48
2022-10-09T23:40:07.011Z,3.38
2022-10-09T23:44:08.745Z,3.30
2022-10-09T23:48:10.649Z,3.28
2022-10-09T23:52:12.530Z,3.25
2022-10-09T23:56:22.143Z,3.12
